Kezdőlap
METAR-TAF:

METAR-TAF

Repülőterek :

Julius Nyerere nemzetközi repülőtér

Dar es-Salaam, Tanzánia

földrajzi szélesség: 06-52S, földrajzi hosszúság: 039-12E, magasság: 55 m

Jelenlegi meteorológiai megfigyelések

A jelentés 31 perccel ezelõtt készült, 16:00 UTC
Kelet-délkeleti szél 8 kt
Hőmérséklet 26°C
Páratartalom 65%
Légköri nyomás 1017 hPa
Látótávolság 10 km, vagy több
Kevés felhő 2600 lábon

METAR: HTDA 181600Z 12008KT 9999 FEW026 26/19 Q1017 NOSIG

Idő: 19:31 (16:31 UTC)

Előrejelzés

A jelentés 11 órával és 31 perccel ezelõtt készült, 05:00 UTC
Az előrejelzés 18-én 06 óra UTC és 19-én 12 óra UTC között érvényes
Déli szél 5 kt
Látótávolság 10 km, vagy több
Szórványos felhőzet 2000 lábon
18-én 18 óra UTC és 18-én 21 óra UTC között fokozatosan kialakuló
Északi szél kt

TAF: HTDA 180500Z 1806/1912 18005KT 9999 SCT020 BECMG 1818/1821 00000KT

Meteorológiai megfigyelések és előrejelzések több, mint 4000 repülőtéren (METAR és TAF jelentéseket).

A térképen piros és sárga pontok jelzik az elérhető meteorológiai állomásokat.

Mozgassa az egeret a pont fölött, hogy megjelenjen az állomás neve.

Azután kattintson az időjárási megfigyelések és előrejelzések megtekintéséhez.

A térkép megváltoztatása: kattintson a fekete keresztel jelölt zöld gombra ráközelítéshez, a vonallal jelölt zöld gombra távolításhoz, vagy a zöld nyilakra a szomszédos térképek eléréséhez.


METAR-TAF: